Time;durP1;ratioP1;P1;durP2;ratioP2;P2;SDS_P1;SDS_P2;PMS_P1;PMS_P2;Temp;Humidity;BMP_temperature;BMP_pressure;BME280_temperature;BME280_humidity;BME280_pressure;Samples;Min_cycle;Max_cycle;Signal;HPM_P1;HPM_P2
2023/09/30 00:00:11;;;;;;;2.20;1.80;;;;;;;;;;5073002;28;20274;-86
2023/09/30 00:02:38;;;;;;;3.93;2.00;;;;;;;;;;5053901;28;20574;-86
2023/09/30 00:05:05;;;;;;;5.57;1.87;;;;;;;;;;5053854;28;20260;-86
2023/09/30 00:07:32;;;;;;;3.37;1.70;;;;;;;;;;5054102;28;20730;-86
2023/09/30 00:10:00;;;;;;;3.10;1.80;;;;;;;;;;5053622;28;20237;-87
2023/09/30 00:12:27;;;;;;;5.07;1.90;;;;;;;;;;5054118;28;20237;-87
2023/09/30 00:14:55;;;;;;;3.17;1.80;;;;;;;;;;5053840;28;20605;-86
2023/09/30 00:17:22;;;;;;;2.23;1.63;;;;;;;;;;5054170;28;20209;-87
2023/09/30 00:19:50;;;;;;;5.67;1.80;;;;;;;;;;5053684;28;20238;-86
2023/09/30 00:22:17;;;;;;;5.53;1.80;;;;;;;;;;5053887;28;20240;-86
2023/09/30 00:24:44;;;;;;;5.63;2.00;;;;;;;;;;5053615;28;20236;-86
2023/09/30 00:27:11;;;;;;;2.97;1.70;;;;;;;;;;5053785;28;20212;-87
2023/09/30 00:29:38;;;;;;;5.53;1.97;;;;;;;;;;5053921;28;20233;-86
2023/09/30 00:32:06;;;;;;;3.57;2.00;;;;;;;;;;5053060;28;20218;-86
2023/09/30 00:34:34;;;;;;;2.07;1.60;;;;;;;;;;5052096;28;20240;-86
2023/09/30 00:37:01;;;;;;;5.70;2.07;;;;;;;;;;5052947;28;20267;-86
2023/09/30 00:39:30;;;;;;;2.83;1.70;;;;;;;;;;5053566;28;20234;-87
2023/09/30 00:41:58;;;;;;;2.07;1.80;;;;;;;;;;5053973;28;20232;-86
2023/09/30 00:44:25;;;;;;;3.53;1.80;;;;;;;;;;5053437;28;20273;-86
2023/09/30 00:46:53;;;;;;;2.00;1.70;;;;;;;;;;5053852;28;20209;-86
2023/09/30 00:49:21;;;;;;;2.07;1.87;;;;;;;;;;5053174;28;20715;-86
2023/09/30 00:51:49;;;;;;;6.73;1.97;;;;;;;;;;5053788;28;20202;-86
2023/09/30 00:54:17;;;;;;;2.83;1.80;;;;;;;;;;5071068;28;20249;-86
2023/09/30 00:56:45;;;;;;;3.53;2.10;;;;;;;;;;5071733;28;20206;-86
2023/09/30 00:59:12;;;;;;;4.10;1.83;;;;;;;;;;5056580;28;20225;-86
2023/09/30 01:01:39;;;;;;;3.73;2.03;;;;;;;;;;5053607;28;20248;-86
2023/09/30 01:04:07;;;;;;;2.10;1.80;;;;;;;;;;5069955;28;20713;-86
2023/09/30 01:06:35;;;;;;;3.63;1.70;;;;;;;;;;5069754;28;20224;-86
2023/09/30 01:09:02;;;;;;;1.93;1.60;;;;;;;;;;5073281;28;20233;-86
2023/09/30 01:11:30;;;;;;;2.50;1.63;;;;;;;;;;5073594;28;20611;-86
2023/09/30 01:13:57;;;;;;;3.17;1.83;;;;;;;;;;5073171;28;20230;-86
2023/09/30 01:16:24;;;;;;;2.87;1.77;;;;;;;;;;5073409;28;20232;-86
2023/09/30 01:18:51;;;;;;;3.10;1.80;;;;;;;;;;5073027;28;20197;-86
2023/09/30 01:21:19;;;;;;;7.50;2.20;;;;;;;;;;5073618;28;20248;-86
2023/09/30 01:23:48;;;;;;;3.20;1.93;;;;;;;;;;5073054;28;20597;-86
2023/09/30 01:26:15;;;;;;;6.67;2.17;;;;;;;;;;5073659;28;20182;-86
2023/09/30 01:28:42;;;;;;;3.77;1.83;;;;;;;;;;5072933;28;20206;-86
2023/09/30 01:31:09;;;;;;;2.23;1.83;;;;;;;;;;5073625;28;20208;-86
2023/09/30 01:33:36;;;;;;;5.30;1.63;;;;;;;;;;5072492;28;20228;-86
2023/09/30 01:36:03;;;;;;;4.43;2.10;;;;;;;;;;5074948;28;20204;-86
2023/09/30 01:38:31;;;;;;;4.63;2.10;;;;;;;;;;5075972;28;20288;-86
2023/09/30 01:40:59;;;;;;;3.97;2.30;;;;;;;;;;5076466;28;20237;-86
2023/09/30 01:43:26;;;;;;;3.57;2.10;;;;;;;;;;5076976;28;20236;-86
2023/09/30 01:45:53;;;;;;;2.50;2.10;;;;;;;;;;5076061;28;20241;-86
2023/09/30 01:48:20;;;;;;;3.33;2.13;;;;;;;;;;5076726;28;20213;-86
2023/09/30 01:50:47;;;;;;;2.77;1.80;;;;;;;;;;5076145;28;20229;-86
2023/09/30 01:53:14;;;;;;;1.97;1.60;;;;;;;;;;5076650;28;20291;-86
2023/09/30 01:55:42;;;;;;;5.60;2.20;;;;;;;;;;5076113;28;20229;-86
2023/09/30 01:58:11;;;;;;;5.07;2.20;;;;;;;;;;5076592;28;20225;-86
2023/09/30 02:00:38;;;;;;;5.40;2.07;;;;;;;;;;5075920;28;20236;-86
2023/09/30 02:03:05;;;;;;;3.63;2.67;;;;;;;;;;5076486;28;20229;-86
2023/09/30 02:05:32;;;;;;;3.60;2.00;;;;;;;;;;5075925;28;20233;-86
2023/09/30 02:07:59;;;;;;;3.73;2.00;;;;;;;;;;5076418;28;20202;-86
2023/09/30 02:10:27;;;;;;;6.53;2.17;;;;;;;;;;5076061;28;20233;-86
2023/09/30 02:12:54;;;;;;;2.63;2.10;;;;;;;;;;5076373;28;20229;-85
2023/09/30 02:15:22;;;;;;;3.37;2.40;;;;;;;;;;5075762;28;20233;-86
2023/09/30 02:17:49;;;;;;;3.07;2.07;;;;;;;;;;5076157;28;20694;-86
2023/09/30 02:20:19;;;;;;;3.50;2.33;;;;;;;;;;5075920;28;20634;-86
2023/09/30 02:22:47;;;;;;;3.33;2.30;;;;;;;;;;5076386;28;20232;-86
2023/09/30 02:25:14;;;;;;;4.20;2.30;;;;;;;;;;5075659;28;20252;-86
2023/09/30 02:27:43;;;;;;;3.90;2.50;;;;;;;;;;5076046;28;20204;-87
2023/09/30 02:30:11;;;;;;;5.40;2.40;;;;;;;;;;5075653;28;20248;-86
2023/09/30 02:32:40;;;;;;;5.77;2.30;;;;;;;;;;5076094;28;20217;-86
2023/09/30 02:35:08;;;;;;;2.73;2.20;;;;;;;;;;5075308;28;20237;-87
2023/09/30 02:37:36;;;;;;;3.40;2.40;;;;;;;;;;5074573;28;20216;-86
2023/09/30 02:40:05;;;;;;;6.53;2.97;;;;;;;;;;5074436;28;20229;-86
2023/09/30 02:42:32;;;;;;;6.67;2.60;;;;;;;;;;5075574;28;20225;-86
2023/09/30 02:45:01;;;;;;;4.93;2.50;;;;;;;;;;5075059;28;20788;-86
2023/09/30 02:47:28;;;;;;;5.83;2.53;;;;;;;;;;5074462;28;20202;-85
2023/09/30 02:49:58;;;;;;;4.70;2.67;;;;;;;;;;5075089;28;20714;-86
2023/09/30 02:52:25;;;;;;;5.27;2.40;;;;;;;;;;5075569;28;20233;-86
2023/09/30 02:54:52;;;;;;;5.67;2.70;;;;;;;;;;5075317;28;20240;-85
2023/09/30 02:57:20;;;;;;;2.80;2.50;;;;;;;;;;5075215;28;20683;-86
2023/09/30 02:59:48;;;;;;;2.57;2.20;;;;;;;;;;5075023;28;20722;-86
2023/09/30 03:02:15;;;;;;;4.67;2.83;;;;;;;;;;5058045;28;20597;-85
2023/09/30 03:04:43;;;;;;;4.83;2.93;;;;;;;;;;5054880;28;20272;-86
2023/09/30 03:07:11;;;;;;;8.03;2.83;;;;;;;;;;5055283;28;20668;-85
2023/09/30 03:09:39;;;;;;;4.97;2.80;;;;;;;;;;5054717;28;20245;-85
2023/09/30 03:12:08;;;;;;;4.53;2.43;;;;;;;;;;5055188;28;20213;-86
2023/09/30 03:14:35;;;;;;;5.03;3.23;;;;;;;;;;5055103;28;20674;-86
2023/09/30 03:17:03;;;;;;;5.47;3.13;;;;;;;;;;5055201;28;20213;-85
2023/09/30 03:19:30;;;;;;;6.57;2.80;;;;;;;;;;5054643;28;20229;-86
2023/09/30 03:21:57;;;;;;;6.10;2.67;;;;;;;;;;5054672;28;20233;-85
2023/09/30 03:24:26;;;;;;;8.77;3.23;;;;;;;;;;5054567;28;20706;-86
2023/09/30 03:26:54;;;;;;;4.30;2.97;;;;;;;;;;5054893;28;20210;-85
2023/09/30 03:29:21;;;;;;;5.10;2.53;;;;;;;;;;5054382;28;20234;-85
2023/09/30 03:31:48;;;;;;;3.10;2.80;;;;;;;;;;5054859;28;20224;-85
2023/09/30 03:34:16;;;;;;;5.67;2.73;;;;;;;;;;5054421;28;20241;-85
2023/09/30 03:36:44;;;;;;;4.13;2.77;;;;;;;;;;5054619;28;20212;-86
2023/09/30 03:39:14;;;;;;;3.83;2.87;;;;;;;;;;5053795;28;20237;-86
2023/09/30 03:41:43;;;;;;;5.53;3.17;;;;;;;;;;5053736;28;20260;-85
2023/09/30 03:44:11;;;;;;;3.33;2.70;;;;;;;;;;5052769;28;20241;-85
2023/09/30 03:46:38;;;;;;;4.63;2.97;;;;;;;;;;5053752;28;20202;-86
2023/09/30 03:49:08;;;;;;;4.60;2.63;;;;;;;;;;5054062;28;20240;-85
2023/09/30 03:51:37;;;;;;;7.13;3.17;;;;;;;;;;5054567;28;20632;-85
2023/09/30 03:54:04;;;;;;;4.33;2.53;;;;;;;;;;5070630;28;20232;-85
2023/09/30 03:56:31;;;;;;;5.57;3.20;;;;;;;;;;5074478;28;20553;-85
2023/09/30 03:59:00;;;;;;;4.70;3.03;;;;;;;;;;5073668;28;20225;-85
2023/09/30 04:01:27;;;;;;;5.63;2.60;;;;;;;;;;5074249;28;20207;-86
2023/09/30 04:03:56;;;;;;;3.77;2.90;;;;;;;;;;5073871;28;20245;-85
2023/09/30 04:06:23;;;;;;;5.67;3.30;;;;;;;;;;5074068;28;20279;-85
2023/09/30 04:08:50;;;;;;;4.83;2.97;;;;;;;;;;5073768;28;20244;-86
2023/09/30 04:11:18;;;;;;;5.70;2.90;;;;;;;;;;5073979;28;20655;-85
2023/09/30 04:13:46;;;;;;;7.07;3.37;;;;;;;;;;5073681;28;20225;-86
2023/09/30 04:16:14;;;;;;;6.00;3.00;;;;;;;;;;5074025;28;20736;-86
2023/09/30 04:18:41;;;;;;;5.03;3.10;;;;;;;;;;5073823;28;20205;-86
2023/09/30 04:21:08;;;;;;;6.00;3.20;;;;;;;;;;5074010;28;20209;-86
2023/09/30 04:23:36;;;;;;;5.23;3.00;;;;;;;;;;5073301;28;20329;-86
2023/09/30 04:26:05;;;;;;;6.00;3.13;;;;;;;;;;5073999;28;20200;-86
2023/09/30 04:28:34;;;;;;;6.37;2.73;;;;;;;;;;5073583;28;20197;-86
2023/09/30 04:31:02;;;;;;;5.10;3.27;;;;;;;;;;5074155;28;20254;-86
2023/09/30 04:33:31;;;;;;;5.30;3.40;;;;;;;;;;5073919;28;20233;-86
2023/09/30 04:35:58;;;;;;;7.97;2.80;;;;;;;;;;5073608;28;20232;-86
2023/09/30 04:38:25;;;;;;;4.67;2.83;;;;;;;;;;5074126;28;20196;-86
2023/09/30 04:40:54;;;;;;;6.60;3.07;;;;;;;;;;5073259;28;20274;-86
2023/09/30 04:43:21;;;;;;;6.87;3.43;;;;;;;;;;5073618;28;20222;-86
2023/09/30 04:45:49;;;;;;;6.60;3.20;;;;;;;;;;5072834;28;20248;-86
2023/09/30 04:48:16;;;;;;;7.57;2.97;;;;;;;;;;5072506;28;20217;-86
2023/09/30 04:50:45;;;;;;;8.93;3.17;;;;;;;;;;5072047;28;20229;-86
2023/09/30 04:53:12;;;;;;;3.97;3.00;;;;;;;;;;5073527;28;20229;-86
2023/09/30 04:55:39;;;;;;;5.60;3.20;;;;;;;;;;5073412;28;20316;-86
2023/09/30 04:58:07;;;;;;;7.60;3.10;;;;;;;;;;5073566;28;20218;-86
2023/09/30 05:00:34;;;;;;;7.63;3.40;;;;;;;;;;5073583;28;20263;-86
2023/09/30 05:03:02;;;;;;;4.87;2.90;;;;;;;;;;5073595;28;20229;-86
2023/09/30 05:05:29;;;;;;;5.30;3.17;;;;;;;;;;5072890;28;20282;-86
2023/09/30 05:07:58;;;;;;;5.33;2.83;;;;;;;;;;5073703;28;20230;-86
2023/09/30 05:10:26;;;;;;;10.37;3.50;;;;;;;;;;5075458;28;20290;-86
2023/09/30 05:12:54;;;;;;;7.10;3.07;;;;;;;;;;5077283;28;20221;-86
2023/09/30 05:15:22;;;;;;;6.27;3.53;;;;;;;;;;5076853;28;20233;-85
2023/09/30 05:17:50;;;;;;;4.00;2.80;;;;;;;;;;5077462;28;20205;-86
2023/09/30 05:20:18;;;;;;;4.47;3.17;;;;;;;;;;5076767;28;20233;-86
2023/09/30 05:22:46;;;;;;;7.00;3.03;;;;;;;;;;5077107;28;20225;-86
2023/09/30 05:25:16;;;;;;;5.27;2.90;;;;;;;;;;5076697;28;20241;-86
2023/09/30 05:27:43;;;;;;;8.57;3.80;;;;;;;;;;5077184;28;20335;-86
2023/09/30 05:30:10;;;;;;;7.57;2.70;;;;;;;;;;5076592;28;20240;-86
2023/09/30 05:32:38;;;;;;;3.90;3.17;;;;;;;;;;5076937;28;20217;-86
2023/09/30 05:35:12;;;;;;;8.30;3.17;;;;;;;;;;5076578;28;20278;-86
2023/09/30 05:37:39;;;;;;;8.60;3.50;;;;;;;;;;5076965;28;20245;-86
2023/09/30 05:40:16;;;;;;;5.97;2.93;;;;;;;;;;5076480;28;20233;-86
2023/09/30 05:42:44;;;;;;;5.90;3.03;;;;;;;;;;5076628;28;20231;-86
2023/09/30 05:45:12;;;;;;;5.23;3.60;;;;;;;;;;5076446;28;20244;-86
2023/09/30 05:47:40;;;;;;;6.13;2.70;;;;;;;;;;5076520;28;20196;-86
2023/09/30 05:50:09;;;;;;;8.70;3.37;;;;;;;;;;5075920;28;20236;-86
2023/09/30 05:52:37;;;;;;;6.70;2.83;;;;;;;;;;5076280;28;20256;-86
2023/09/30 05:55:04;;;;;;;7.50;3.40;;;;;;;;;;5076111;28;20229;-85
2023/09/30 05:57:31;;;;;;;6.40;2.80;;;;;;;;;;5075843;28;20213;-86
2023/09/30 06:00:00;;;;;;;8.33;3.20;;;;;;;;;;5074636;28;20263;-86
2023/09/30 06:02:27;;;;;;;4.13;2.60;;;;;;;;;;5075348;28;20224;-86
2023/09/30 06:04:54;;;;;;;4.20;3.13;;;;;;;;;;5075719;28;20252;-86
2023/09/30 06:07:22;;;;;;;4.57;2.70;;;;;;;;;;5076885;28;20266;-84
2023/09/30 06:09:49;;;;;;;5.80;2.83;;;;;;;;;;5075800;28;20240;-84
2023/09/30 06:12:16;;;;;;;5.57;3.00;;;;;;;;;;5076227;28;20308;-84
2023/09/30 06:14:44;;;;;;;7.37;3.40;;;;;;;;;;5075774;28;20240;-85
2023/09/30 06:17:12;;;;;;;4.00;2.87;;;;;;;;;;5076050;28;20296;-85
2023/09/30 06:19:39;;;;;;;3.27;2.67;;;;;;;;;;5075971;28;20248;-84
2023/09/30 06:22:07;;;;;;;6.33;3.50;;;;;;;;;;5075768;28;20806;-85
2023/09/30 06:24:34;;;;;;;8.50;3.37;;;;;;;;;;5075530;28;20243;-85
2023/09/30 06:27:01;;;;;;;4.23;3.20;;;;;;;;;;5075867;28;20221;-85
2023/09/30 06:29:28;;;;;;;4.10;3.20;;;;;;;;;;5075316;28;20726;-85
2023/09/30 06:31:55;;;;;;;7.10;3.37;;;;;;;;;;5076152;28;20663;-86
2023/09/30 06:34:24;;;;;;;6.53;3.33;;;;;;;;;;5075224;28;20710;-85
2023/09/30 06:36:53;;;;;;;4.87;3.70;;;;;;;;;;5075862;28;20567;-85
2023/09/30 06:39:20;;;;;;;6.40;3.80;;;;;;;;;;5075306;28;20756;-85
2023/09/30 06:41:47;;;;;;;9.67;3.90;;;;;;;;;;5075867;28;20292;-86
2023/09/30 06:44:14;;;;;;;5.00;3.33;;;;;;;;;;5075147;28;20649;-85
2023/09/30 06:46:41;;;;;;;5.40;3.77;;;;;;;;;;5075497;28;20566;-86
2023/09/30 06:49:08;;;;;;;5.57;3.77;;;;;;;;;;5074889;28;20277;-85
2023/09/30 06:51:37;;;;;;;10.37;3.83;;;;;;;;;;5075399;28;20232;-85
2023/09/30 06:54:07;;;;;;;5.90;3.93;;;;;;;;;;5074781;28;20233;-85
2023/09/30 06:56:35;;;;;;;7.33;4.47;;;;;;;;;;5075859;28;20215;-85
2023/09/30 06:59:03;;;;;;;6.73;3.87;;;;;;;;;;5074315;28;20237;-85
2023/09/30 07:01:30;;;;;;;8.10;3.97;;;;;;;;;;5074005;28;20205;-85
2023/09/30 07:03:57;;;;;;;8.27;4.70;;;;;;;;;;5073626;28;20237;-85
2023/09/30 07:06:24;;;;;;;11.10;4.40;;;;;;;;;;5075113;28;20216;-85
2023/09/30 07:08:53;;;;;;;7.77;4.33;;;;;;;;;;5074830;28;20283;-85
2023/09/30 07:11:28;;;;;;;7.83;3.97;;;;;;;;;;5075038;28;20201;-85
2023/09/30 07:13:55;;;;;;;8.03;4.57;;;;;;;;;;5074369;28;20691;-85
2023/09/30 07:16:22;;;;;;;6.83;3.87;;;;;;;;;;5076642;28;20205;-84
2023/09/30 07:18:50;;;;;;;8.13;4.63;;;;;;;;;;5075029;28;20730;-84
2023/09/30 07:21:17;;;;;;;6.60;4.33;;;;;;;;;;5074902;28;20213;-84
2023/09/30 07:23:44;;;;;;;9.77;5.00;;;;;;;;;;5073668;28;20664;-84
2023/09/30 07:26:12;;;;;;;9.13;4.73;;;;;;;;;;5074756;28;20215;-83
2023/09/30 07:28:39;;;;;;;8.90;4.80;;;;;;;;;;5075071;28;20216;-84
2023/09/30 07:31:06;;;;;;;8.90;4.17;;;;;;;;;;5074850;28;20209;-85
2023/09/30 07:33:34;;;;;;;8.47;4.10;;;;;;;;;;5072526;28;20233;-85
2023/09/30 07:36:01;;;;;;;7.83;4.53;;;;;;;;;;5074728;28;20569;-85
2023/09/30 07:38:28;;;;;;;7.23;4.10;;;;;;;;;;5074418;28;20713;-85
2023/09/30 07:40:55;;;;;;;5.63;4.03;;;;;;;;;;5074088;28;20221;-85
2023/09/30 07:43:23;;;;;;;9.27;4.13;;;;;;;;;;5074247;28;20229;-85
2023/09/30 07:45:51;;;;;;;7.93;4.40;;;;;;;;;;5073989;28;20236;-84
2023/09/30 07:48:18;;;;;;;8.80;4.47;;;;;;;;;;5075915;28;20320;-85
2023/09/30 07:50:47;;;;;;;6.10;4.60;;;;;;;;;;5074073;28;20240;-84
2023/09/30 07:53:14;;;;;;;8.07;3.87;;;;;;;;;;5093114;22;20240;-84
2023/09/30 07:55:41;;;;;;;9.13;4.20;;;;;;;;;;5092004;28;20607;-84
2023/09/30 07:58:08;;;;;;;5.97;4.10;;;;;;;;;;5092835;28;20200;-84
2023/09/30 08:00:37;;;;;;;5.93;4.43;;;;;;;;;;5091805;28;20232;-83
2023/09/30 08:03:04;;;;;;;6.10;3.90;;;;;;;;;;5092397;28;20257;-84
2023/09/30 08:05:31;;;;;;;12.63;3.97;;;;;;;;;;5092178;28;20232;-84
2023/09/30 08:07:58;;;;;;;11.33;3.67;;;;;;;;;;5092952;28;20639;-83
2023/09/30 08:10:26;;;;;;;11.53;4.07;;;;;;;;;;5093357;28;20236;-84
2023/09/30 08:12:55;;;;;;;7.23;3.87;;;;;;;;;;5103021;28;20231;-84
2023/09/30 08:15:22;;;;;;;6.23;3.60;;;;;;;;;;5112217;28;20228;-84
2023/09/30 08:17:50;;;;;;;4.43;3.10;;;;;;;;;;5105199;28;20285;-84
2023/09/30 08:20:18;;;;;;;5.40;3.30;;;;;;;;;;5093541;28;20243;-84
2023/09/30 08:22:45;;;;;;;5.53;3.13;;;;;;;;;;5094989;28;20615;-85
2023/09/30 08:25:12;;;;;;;5.07;3.97;;;;;;;;;;5092614;28;20235;-85
2023/09/30 08:27:40;;;;;;;6.10;3.87;;;;;;;;;;5092827;28;20204;-85
2023/09/30 08:30:07;;;;;;;4.70;3.57;;;;;;;;;;5098016;28;20730;-84
2023/09/30 08:32:35;;;;;;;5.63;3.70;;;;;;;;;;5093828;28;20666;-85
2023/09/30 08:35:04;;;;;;;3.83;3.30;;;;;;;;;;5092451;28;20232;-83
2023/09/30 08:37:32;;;;;;;4.53;3.40;;;;;;;;;;5092573;28;20220;-83
2023/09/30 08:39:59;;;;;;;5.37;4.00;;;;;;;;;;5091185;28;20787;-82
2023/09/30 08:42:31;;;;;;;5.63;3.23;;;;;;;;;;5091625;28;20231;-82
2023/09/30 08:44:59;;;;;;;6.50;3.50;;;;;;;;;;5095112;28;20228;-82
2023/09/30 08:47:28;;;;;;;6.60;3.90;;;;;;;;;;5096125;28;20210;-82
2023/09/30 08:49:57;;;;;;;5.73;3.60;;;;;;;;;;5087528;28;20236;-83
2023/09/30 08:52:26;;;;;;;5.13;3.38;;;;;;;;;;5096347;28;20212;-83
2023/09/30 08:54:55;;;;;;;5.97;3.38;;;;;;;;;;5087316;28;20311;-82
2023/09/30 08:57:22;;;;;;;5.05;2.90;;;;;;;;;;5095882;28;20208;-82
2023/09/30 08:59:50;;;;;;;8.40;3.83;;;;;;;;;;5094867;28;20221;-83
2023/09/30 09:02:18;;;;;;;7.38;3.50;;;;;;;;;;5095960;28;20208;-83
2023/09/30 09:04:45;;;;;;;5.22;3.15;;;;;;;;;;5094609;28;20236;-83
2023/09/30 09:07:12;;;;;;;5.13;3.03;;;;;;;;;;5095571;28;20580;-82
2023/09/30 09:09:41;;;;;;;4.72;2.72;;;;;;;;;;5094644;28;20240;-83
2023/09/30 09:12:09;;;;;;;5.40;3.25;;;;;;;;;;5095494;28;20209;-83
2023/09/30 09:14:39;;;;;;;7.00;3.55;;;;;;;;;;5094520;28;20264;-83
2023/09/30 09:17:08;;;;;;;6.90;3.65;;;;;;;;;;5095400;28;20203;-83
2023/09/30 09:19:35;;;;;;;6.47;3.50;;;;;;;;;;5094627;28;20236;-83
2023/09/30 09:22:04;;;;;;;6.45;3.33;;;;;;;;;;5095473;28;20212;-83
2023/09/30 09:24:32;;;;;;;9.68;3.50;;;;;;;;;;5094511;28;20313;-83
2023/09/30 09:27:07;;;;;;;7.57;3.72;;;;;;;;;;5095196;28;20204;-83
2023/09/30 09:29:35;;;;;;;7.80;3.70;;;;;;;;;;5094330;28;20259;-82
2023/09/30 09:32:09;;;;;;;6.20;3.28;;;;;;;;;;5095450;28;20283;-83
2023/09/30 09:34:36;;;;;;;6.93;3.78;;;;;;;;;;5094251;28;20286;-83
2023/09/30 09:37:14;;;;;;;6.68;4.10;;;;;;;;;;5095016;28;20659;-83
2023/09/30 09:39:42;;;;;;;9.93;3.95;;;;;;;;;;5094575;28;20713;-83
2023/09/30 09:42:10;;;;;;;8.02;3.35;;;;;;;;;;5095071;28;20210;-82
2023/09/30 09:44:38;;;;;;;4.10;2.88;;;;;;;;;;5094328;28;20236;-83
2023/09/30 09:47:06;;;;;;;5.35;3.17;;;;;;;;;;5095471;28;20262;-83
2023/09/30 09:49:34;;;;;;;5.45;2.72;;;;;;;;;;5094582;28;20232;-84
2023/09/30 09:52:02;;;;;;;3.33;2.55;;;;;;;;;;5095301;28;20224;-83
2023/09/30 09:54:30;;;;;;;3.55;2.38;;;;;;;;;;5094276;28;20255;-83
2023/09/30 09:56:58;;;;;;;3.75;2.65;;;;;;;;;;5094606;28;20212;-83
2023/09/30 09:59:26;;;;;;;5.38;2.78;;;;;;;;;;5094716;28;20260;-84
2023/09/30 10:01:54;;;;;;;10.35;2.75;;;;;;;;;;5094840;28;20197;-83
2023/09/30 10:04:21;;;;;;;5.00;2.65;;;;;;;;;;5094105;28;20710;-84
2023/09/30 10:06:53;;;;;;;7.07;2.70;;;;;;;;;;5094601;28;20209;-83
2023/09/30 10:09:23;;;;;;;5.40;2.85;;;;;;;;;;5094135;28;20314;-83
2023/09/30 10:11:50;;;;;;;4.65;2.42;;;;;;;;;;5094419;28;20204;-83
2023/09/30 10:14:33;;;;;;;4.93;2.47;;;;;;;;;;5093970;28;20240;-83
2023/09/30 10:17:01;;;;;;;6.65;2.65;;;;;;;;;;5094854;28;20208;-84
2023/09/30 10:19:29;;;;;;;7.43;2.90;;;;;;;;;;5094252;28;20319;-83
2023/09/30 10:22:14;;;;;;;5.38;2.60;;;;;;;;;;5094800;28;20209;-84
2023/09/30 10:24:41;;;;;;;4.80;2.22;;;;;;;;;;5093800;28;20240;-84
2023/09/30 10:27:23;;;;;;;5.70;2.78;;;;;;;;;;5094409;28;20208;-84
2023/09/30 10:29:55;;;;;;;4.07;2.47;;;;;;;;;;5092857;28;20239;-84
2023/09/30 10:32:22;;;;;;;4.95;2.75;;;;;;;;;;5094408;28;20204;-84
2023/09/30 10:34:49;;;;;;;3.70;2.20;;;;;;;;;;5093506;28;20243;-84
2023/09/30 10:37:22;;;;;;;3.35;2.28;;;;;;;;;;5094585;28;20211;-84
2023/09/30 10:40:09;;;;;;;2.70;2.28;;;;;;;;;;5093512;28;20710;-83
2023/09/30 10:42:49;;;;;;;4.40;2.38;;;;;;;;;;5094152;28;20254;-84
2023/09/30 10:45:35;;;;;;;4.38;2.03;;;;;;;;;;5093658;28;20260;-84
2023/09/30 10:48:17;;;;;;;4.07;2.42;;;;;;;;;;5093967;28;20213;-85
2023/09/30 10:50:52;;;;;;;4.15;2.45;;;;;;;;;;5092552;28;20232;-84
2023/09/30 10:53:20;;;;;;;5.20;2.35;;;;;;;;;;5093913;28;20281;-84
2023/09/30 10:55:47;;;;;;;3.78;2.45;;;;;;;;;;5093169;28;20589;-84
2023/09/30 10:58:14;;;;;;;3.72;1.98;;;;;;;;;;5093806;28;20204;-83
2023/09/30 11:00:53;;;;;;;3.95;2.28;;;;;;;;;;5093261;28;20248;-84
2023/09/30 11:03:21;;;;;;;3.75;2.60;;;;;;;;;;5093737;28;20722;-83
2023/09/30 11:05:51;;;;;;;4.75;2.70;;;;;;;;;;5093666;28;20232;-84
2023/09/30 11:08:23;;;;;;;3.90;2.10;;;;;;;;;;5092892;28;20201;-84
2023/09/30 11:10:50;;;;;;;3.72;2.55;;;;;;;;;;5093158;28;20237;-83
2023/09/30 11:13:17;;;;;;;5.18;2.40;;;;;;;;;;5093744;28;20224;-85
2023/09/30 11:15:45;;;;;;;4.47;2.15;;;;;;;;;;5094498;28;20235;-84
2023/09/30 11:18:15;;;;;;;4.38;2.10;;;;;;;;;;5095997;28;20687;-85
2023/09/30 11:20:42;;;;;;;4.30;2.30;;;;;;;;;;5100256;28;20236;-84
2023/09/30 11:23:09;;;;;;;3.30;1.92;;;;;;;;;;5093436;28;20714;-84
2023/09/30 11:25:39;;;;;;;4.15;2.22;;;;;;;;;;5093139;28;20233;-84
2023/09/30 11:28:16;;;;;;;3.95;2.53;;;;;;;;;;5094085;28;20268;-84
2023/09/30 11:30:56;;;;;;;2.72;2.00;;;;;;;;;;5092390;28;20238;-83
2023/09/30 11:33:24;;;;;;;5.65;2.33;;;;;;;;;;5093134;28;20213;-84
2023/09/30 11:35:58;;;;;;;3.45;1.92;;;;;;;;;;5092346;28;20224;-84
2023/09/30 11:38:25;;;;;;;4.05;2.33;;;;;;;;;;5093341;28;20261;-83
2023/09/30 11:41:02;;;;;;;5.50;2.40;;;;;;;;;;5092258;28;20232;-85
2023/09/30 11:43:29;;;;;;;3.30;2.05;;;;;;;;;;5093273;28;20228;-85
2023/09/30 11:46:05;;;;;;;3.60;2.05;;;;;;;;;;5092557;28;20224;-84
2023/09/30 11:48:32;;;;;;;3.13;1.75;;;;;;;;;;5092400;28;20188;-84
2023/09/30 11:51:02;;;;;;;2.28;2.08;;;;;;;;;;5093166;28;20205;-84
2023/09/30 11:53:31;;;;;;;6.53;2.03;;;;;;;;;;5093177;28;20239;-84
2023/09/30 11:55:58;;;;;;;5.07;1.95;;;;;;;;;;5092927;28;20212;-85
2023/09/30 11:58:27;;;;;;;3.33;1.98;;;;;;;;;;5093547;28;20205;-85
2023/09/30 12:00:59;;;;;;;6.18;2.15;;;;;;;;;;5092683;28;20236;-85
2023/09/30 12:03:27;;;;;;;2.47;2.08;;;;;;;;;;5100486;28;20236;-85
2023/09/30 12:05:55;;;;;;;3.15;1.98;;;;;;;;;;5110730;28;20262;-86
2023/09/30 12:08:22;;;;;;;3.80;2.42;;;;;;;;;;5110275;28;20230;-85
2023/09/30 12:10:49;;;;;;;4.47;2.63;;;;;;;;;;5109805;28;20717;-84
2023/09/30 12:13:16;;;;;;;1.85;1.60;;;;;;;;;;5109472;28;20228;-85
2023/09/30 12:15:45;;;;;;;2.60;1.77;;;;;;;;;;5110006;28;20228;-85
2023/09/30 12:18:16;;;;;;;2.60;1.80;;;;;;;;;;5111705;28;20200;-85
2023/09/30 12:20:44;;;;;;;2.50;1.40;;;;;;;;;;5109503;28;20228;-84
2023/09/30 12:23:11;;;;;;;1.30;1.00;;;;;;;;;;5095292;28;20309;-85
2023/09/30 12:25:38;;;;;;;1.65;1.35;;;;;;;;;;5094629;28;20235;-85
2023/09/30 12:28:05;;;;;;;3.45;1.55;;;;;;;;;;5092982;28;20209;-85
2023/09/30 12:30:33;;;;;;;3.60;1.73;;;;;;;;;;5092472;28;20736;-84
2023/09/30 12:33:01;;;;;;;5.75;1.88;;;;;;;;;;5093168;28;20727;-84
2023/09/30 12:35:28;;;;;;;2.13;1.42;;;;;;;;;;5093826;28;20255;-84
2023/09/30 12:37:55;;;;;;;4.13;2.10;;;;;;;;;;5095672;28;20209;-85
2023/09/30 12:40:22;;;;;;;1.98;1.67;;;;;;;;;;5092919;28;20247;-84
2023/09/30 12:42:50;;;;;;;2.58;1.70;;;;;;;;;;5092666;28;20252;-84
2023/09/30 12:45:18;;;;;;;2.78;1.58;;;;;;;;;;5091993;28;20235;-84
2023/09/30 12:47:46;;;;;;;4.78;1.95;;;;;;;;;;5093173;28;20685;-84
2023/09/30 12:50:15;;;;;;;3.28;1.73;;;;;;;;;;5091479;28;20236;-84
2023/09/30 12:52:42;;;;;;;4.13;1.63;;;;;;;;;;5092812;28;20228;-84
2023/09/30 12:55:10;;;;;;;1.70;1.40;;;;;;;;;;5092705;28;20225;-85
2023/09/30 12:57:37;;;;;;;2.70;1.70;;;;;;;;;;5092025;28;20254;-85
2023/09/30 13:00:09;;;;;;;3.40;1.55;;;;;;;;;;5091539;28;20305;-84
2023/09/30 13:02:36;;;;;;;2.88;1.50;;;;;;;;;;5092243;28;20221;-85
2023/09/30 13:05:04;;;;;;;2.95;1.75;;;;;;;;;;5091184;28;20228;-85
2023/09/30 13:07:33;;;;;;;2.88;1.70;;;;;;;;;;5092407;28;20299;-84
2023/09/30 13:10:01;;;;;;;3.38;1.70;;;;;;;;;;5091159;28;20238;-85
2023/09/30 13:12:28;;;;;;;1.52;1.38;;;;;;;;;;5091929;28;20235;-85
2023/09/30 13:14:56;;;;;;;1.98;1.48;;;;;;;;;;5091330;28;20737;-84
2023/09/30 13:17:23;;;;;;;3.20;1.55;;;;;;;;;;5091827;28;20193;-85
2023/09/30 13:19:51;;;;;;;3.53;1.80;;;;;;;;;;5091374;28;20228;-85
2023/09/30 13:22:18;;;;;;;2.80;2.00;;;;;;;;;;5091828;28;20211;-84
2023/09/30 13:24:46;;;;;;;3.72;1.90;;;;;;;;;;5091445;28;20232;-85
2023/09/30 13:27:15;;;;;;;2.13;1.58;;;;;;;;;;5092701;28;20224;-85
2023/09/30 13:29:42;;;;;;;3.40;1.77;;;;;;;;;;5091368;28;20240;-84
2023/09/30 13:32:10;;;;;;;2.75;1.77;;;;;;;;;;5095470;28;20296;-85
2023/09/30 13:34:38;;;;;;;2.75;1.52;;;;;;;;;;5094977;28;20610;-85
2023/09/30 13:37:05;;;;;;;2.40;1.67;;;;;;;;;;5095176;28;20205;-85
2023/09/30 13:39:33;;;;;;;2.13;1.70;;;;;;;;;;5094854;28;20238;-85
2023/09/30 13:42:02;;;;;;;3.55;1.85;;;;;;;;;;5095410;28;20208;-86
2023/09/30 13:44:29;;;;;;;3.63;1.92;;;;;;;;;;5094495;28;20244;-84
2023/09/30 13:46:56;;;;;;;1.95;1.60;;;;;;;;;;5095373;28;20200;-84
2023/09/30 13:49:23;;;;;;;2.53;2.00;;;;;;;;;;5094470;28;20232;-84
2023/09/30 13:51:50;;;;;;;2.88;1.88;;;;;;;;;;5095135;28;20216;-84
2023/09/30 13:54:17;;;;;;;2.15;1.77;;;;;;;;;;5108265;22;20318;-86
2023/09/30 13:56:44;;;;;;;3.17;1.70;;;;;;;;;;5077905;28;20205;-86
2023/09/30 13:59:13;;;;;;;3.22;1.92;;;;;;;;;;5077061;28;20437;-87
2023/09/30 14:01:41;;;;;;;1.67;1.48;;;;;;;;;;5078181;28;20611;-87
2023/09/30 14:04:08;;;;;;;2.65;1.40;;;;;;;;;;5085181;28;20261;-87
2023/09/30 14:06:36;;;;;;;4.30;2.17;;;;;;;;;;5092830;28;20229;-87
2023/09/30 14:09:04;;;;;;;3.35;1.90;;;;;;;;;;5098084;28;20228;-87
2023/09/30 14:11:31;;;;;;;3.50;1.80;;;;;;;;;;5098476;28;20189;-87
2023/09/30 14:13:58;;;;;;;2.78;1.95;;;;;;;;;;5096973;28;20236;-87
2023/09/30 14:16:26;;;;;;;3.58;1.90;;;;;;;;;;5097652;28;20287;-88
2023/09/30 14:18:55;;;;;;;2.10;1.85;;;;;;;;;;5095761;28;20239;-87
2023/09/30 14:21:22;;;;;;;3.05;1.50;;;;;;;;;;5096624;28;20204;-87
2023/09/30 14:23:49;;;;;;;5.63;1.95;;;;;;;;;;5097085;28;20243;-87
2023/09/30 14:26:16;;;;;;;2.00;1.73;;;;;;;;;;5097107;28;20584;-87
2023/09/30 14:28:44;;;;;;;3.50;1.85;;;;;;;;;;5097412;28;20283;-87
2023/09/30 14:31:12;;;;;;;2.45;1.67;;;;;;;;;;5097798;28;20627;-87
2023/09/30 14:33:40;;;;;;;2.47;1.65;;;;;;;;;;5097061;28;20224;-87
2023/09/30 14:36:07;;;;;;;3.10;1.42;;;;;;;;;;5097205;28;20215;-87
2023/09/30 14:38:36;;;;;;;4.05;1.40;;;;;;;;;;5096938;28;20383;-87
2023/09/30 14:41:07;;;;;;;3.08;1.63;;;;;;;;;;5097623;28;20639;-86
2023/09/30 14:43:34;;;;;;;4.13;1.45;;;;;;;;;;5097249;28;20299;-87
2023/09/30 14:46:02;;;;;;;4.15;1.98;;;;;;;;;;5097484;28;20234;-87
2023/09/30 14:48:30;;;;;;;2.88;1.90;;;;;;;;;;5097899;28;20556;-87